Time;durP1;ratioP1;P1;durP2;ratioP2;P2;SDS_P1;SDS_P2;PMS_P1;PMS_P2;Temp;Humidity;BMP_temperature;BMP_pressure;BME280_temperature;BME280_humidity;BME280_pressure;Samples;Min_cycle;Max_cycle;Signal;HPM_P1;HPM_P2
2022/06/01 00:00:26;;;;;;;;;;;8.80;99.90;;;;;;5112389;28;20264;-67
2022/06/01 00:02:52;;;;;;;;;;;8.80;99.90;;;;;;5112184;28;19911;-67
2022/06/01 00:05:19;;;;;;;;;;;8.70;99.90;;;;;;5111911;28;19911;-67
2022/06/01 00:07:46;;;;;;;;;;;8.70;99.90;;;;;;5111906;28;20435;-67
2022/06/01 00:10:12;;;;;;;;;;;8.70;99.90;;;;;;5112096;28;20367;-67
2022/06/01 00:12:38;;;;;;;;;;;8.70;99.90;;;;;;5112281;28;19904;-67
2022/06/01 00:15:04;;;;;;;;;;;8.60;99.90;;;;;;5111172;28;20092;-67
2022/06/01 00:17:29;;;;;;;;;;;8.60;99.90;;;;;;5111942;28;19965;-67
2022/06/01 00:19:55;;;;;;;;;;;8.50;99.90;;;;;;5111764;28;19907;-67
2022/06/01 00:22:20;;;;;;;;;;;8.50;99.90;;;;;;5111788;28;20287;-67
2022/06/01 00:24:46;;;;;;;;;;;8.40;99.90;;;;;;5108890;28;19954;-67
2022/06/01 00:27:12;;;;;;;;;;;8.50;99.90;;;;;;5108587;28;20065;-67
2022/06/01 00:29:38;;;;;;;;;;;8.40;99.90;;;;;;5110875;28;20646;-67
2022/06/01 00:32:05;;;;;;;;;;;8.50;99.90;;;;;;5111647;28;20380;-66
2022/06/01 00:34:30;;;;;;;;;;;8.50;99.90;;;;;;5111224;28;19919;-67
2022/06/01 00:36:56;;;;;;;;;;;8.40;99.90;;;;;;5111259;28;19994;-67
2022/06/01 00:39:21;;;;;;;;;;;8.40;99.90;;;;;;5111874;28;19919;-67
2022/06/01 00:41:47;;;;;;;;;;;8.40;99.90;;;;;;5111788;28;19903;-67
2022/06/01 00:44:12;;;;;;;;;;;8.30;99.90;;;;;;5111400;28;20327;-67
2022/06/01 00:46:38;;;;;;;;;;;8.30;99.90;;;;;;5111727;28;19960;-67
2022/06/01 00:49:09;;;;;;;;;;;8.30;99.90;;;;;;5111106;28;19904;-67
2022/06/01 00:51:35;;;;;;;;;;;8.30;99.90;;;;;;5110982;28;20028;-67
2022/06/01 00:54:01;;;;;;;;;;;8.20;99.90;;;;;;5111513;28;19942;-67
2022/06/01 00:56:28;;;;;;;;;;;8.20;99.90;;;;;;5111467;28;20426;-67
2022/06/01 00:58:55;;;;;;;;;;;8.10;99.90;;;;;;5111100;28;20451;-67
2022/06/01 01:01:21;;;;;;;;;;;8.10;99.90;;;;;;5111161;28;19903;-67
2022/06/01 01:03:49;;;;;;;;;;;8.10;99.90;;;;;;5107633;28;19972;-67
2022/06/01 01:06:26;;;;;;;;;;;8.10;99.90;;;;;;5107914;28;20010;-67
2022/06/01 01:08:52;;;;;;;;;;;8.00;99.90;;;;;;5110721;28;20356;-67
2022/06/01 01:11:23;;;;;;;;;;;8.10;99.90;;;;;;5111034;28;19964;-67
2022/06/01 01:13:50;;;;;;;;;;;8.10;99.90;;;;;;5111006;28;19904;-67
2022/06/01 01:16:16;;;;;;;;;;;8.10;99.90;;;;;;5111115;28;19904;-67
2022/06/01 01:18:43;;;;;;;;;;;8.10;99.90;;;;;;5110162;28;20056;-67
2022/06/01 01:21:16;;;;;;;;;;;8.10;99.90;;;;;;5110825;28;20005;-67
2022/06/01 01:23:49;;;;;;;;;;;8.10;99.90;;;;;;5111097;28;19911;-67
2022/06/01 01:26:15;;;;;;;;;;;8.00;99.90;;;;;;5113603;28;20493;-67
2022/06/01 01:28:40;;;;;;;;;;;8.10;99.90;;;;;;5117826;28;20002;-67
2022/06/01 01:31:07;;;;;;;;;;;8.00;99.90;;;;;;5117680;28;19908;-67
2022/06/01 01:33:33;;;;;;;;;;;8.00;99.90;;;;;;5099182;28;19907;-67
2022/06/01 01:36:01;;;;;;;;;;;7.90;99.90;;;;;;5117446;28;19916;-67
2022/06/01 01:38:37;;;;;;;;;;;7.90;99.90;;;;;;5117669;28;19915;-67
2022/06/01 01:41:21;;;;;;;;;;;7.90;99.90;;;;;;5117811;28;19911;-67
2022/06/01 01:43:53;;;;;;;;;;;7.80;99.90;;;;;;5117517;28;20283;-67
2022/06/01 01:46:18;;;;;;;;;;;7.80;99.90;;;;;;5116466;28;19908;-67
2022/06/01 01:48:44;;;;;;;;;;;7.80;99.90;;;;;;5113288;28;19982;-66
2022/06/01 01:51:09;;;;;;;;;;;7.80;99.90;;;;;;5114237;28;19908;-67
2022/06/01 01:53:35;;;;;;;;;;;7.80;99.90;;;;;;5114477;28;19903;-67
2022/06/01 01:56:19;;;;;;;;;;;7.70;99.90;;;;;;5112807;28;19912;-67
2022/06/01 01:59:03;;;;;;;;;;;7.60;99.90;;;;;;5114423;28;20284;-66
2022/06/01 02:01:37;;;;;;;;;;;7.50;99.90;;;;;;5114247;28;20375;-66
2022/06/01 02:06:03;;;;;;;;;;;7.30;99.90;;;;;;5115035;27;19912;-67
2022/06/01 02:06:53;;;;;;;;;;;7.20;99.90;;;;;;5117404;28;19953;-67
2022/06/01 02:09:19;;;;;;;;;;;7.10;99.90;;;;;;5117390;27;19911;-67
2022/06/01 02:14:42;;;;;;;;;;;7.00;99.90;;;;;;5117589;28;20310;-66
2022/06/01 02:17:20;;;;;;;;;;;6.90;99.90;;;;;;5115876;28;20272;-66
2022/06/01 02:19:48;;;;;;;;;;;6.90;99.90;;;;;;5117005;27;19956;-67
2022/06/01 02:22:14;;;;;;;;;;;6.80;99.90;;;;;;5117295;27;20010;-67
2022/06/01 02:24:40;;;;;;;;;;;6.80;99.90;;;;;;5117522;28;20086;-67
2022/06/01 02:27:06;;;;;;;;;;;6.70;99.90;;;;;;5117447;27;20469;-67
2022/06/01 02:29:34;;;;;;;;;;;6.70;99.90;;;;;;5114611;27;20366;-67
2022/06/01 02:32:00;;;;;;;;;;;6.70;99.90;;;;;;5114178;27;20010;-67
2022/06/01 02:34:27;;;;;;;;;;;6.60;99.90;;;;;;5113667;27;20389;-67
2022/06/01 02:36:53;;;;;;;;;;;6.50;99.90;;;;;;5113685;27;19994;-67
2022/06/01 02:39:19;;;;;;;;;;;6.50;99.90;;;;;;5112588;28;20002;-67
2022/06/01 02:44:29;;;;;;;;;;;6.30;99.90;;;;;;5114112;28;20349;-67
2022/06/01 02:46:55;;;;;;;;;;;6.30;99.90;;;;;;5113892;28;20420;-67
2022/06/01 02:49:21;;;;;;;;;;;6.30;99.90;;;;;;5113631;28;19904;-67
2022/06/01 02:51:49;;;;;;;;;;;6.30;99.90;;;;;;5113492;27;20276;-67
2022/06/01 02:54:14;;;;;;;;;;;6.30;99.90;;;;;;5113773;28;20340;-67
2022/06/01 02:56:40;;;;;;;;;;;6.30;99.90;;;;;;5113647;28;20416;-67
2022/06/01 02:59:05;;;;;;;;;;;6.30;99.90;;;;;;5113886;28;20402;-67
2022/06/01 03:01:31;;;;;;;;;;;6.30;99.90;;;;;;5113548;28;19998;-67
2022/06/01 03:03:57;;;;;;;;;;;6.20;99.90;;;;;;5113186;28;19915;-67
2022/06/01 03:06:23;;;;;;;;;;;6.20;99.90;;;;;;5113496;28;20004;-67
2022/06/01 03:08:48;;;;;;;;;;;6.20;99.90;;;;;;5113327;28;19969;-67
2022/06/01 03:11:14;;;;;;;;;;;6.10;99.90;;;;;;5113237;28;19940;-67
2022/06/01 03:13:40;;;;;;;;;;;6.10;99.90;;;;;;5112725;28;19919;-67
2022/06/01 03:16:06;;;;;;;;;;;6.10;99.90;;;;;;5113206;28;19903;-67
2022/06/01 03:18:31;;;;;;;;;;;6.10;99.90;;;;;;5113113;28;19903;-67
2022/06/01 03:21:00;;;;;;;;;;;6.20;99.90;;;;;;5112926;28;20390;-67
2022/06/01 03:23:26;;;;;;;;;;;6.20;99.90;;;;;;5112939;28;19915;-67
2022/06/01 03:25:52;;;;;;;;;;;6.20;99.90;;;;;;5113221;28;19919;-67
2022/06/01 03:28:17;;;;;;;;;;;6.10;99.90;;;;;;5113050;28;19903;-67
2022/06/01 03:30:43;;;;;;;;;;;6.10;99.90;;;;;;5113234;28;19984;-67
2022/06/01 03:33:09;;;;;;;;;;;6.10;99.90;;;;;;5113469;28;19963;-67
2022/06/01 03:35:36;;;;;;;;;;;6.00;99.90;;;;;;5112685;28;19955;-67
2022/06/01 03:38:03;;;;;;;;;;;6.00;99.90;;;;;;5113151;28;19990;-67
2022/06/01 03:40:29;;;;;;;;;;;5.90;99.90;;;;;;5113082;28;19961;-67
2022/06/01 03:42:55;;;;;;;;;;;5.90;99.90;;;;;;5113393;28;19968;-67
2022/06/01 03:48:08;;;;;;;;;;;5.90;99.90;;;;;;5112995;28;20408;-67
2022/06/01 03:50:34;;;;;;;;;;;5.90;99.90;;;;;;5110849;28;19903;-67
2022/06/01 03:53:00;;;;;;;;;;;5.90;99.90;;;;;;5112333;28;20338;-66
2022/06/01 03:55:26;;;;;;;;;;;5.90;99.90;;;;;;5112583;28;19949;-67
2022/06/01 03:57:52;;;;;;;;;;;5.80;99.90;;;;;;5112673;28;19953;-67
2022/06/01 04:00:21;;;;;;;;;;;5.80;99.90;;;;;;5112329;28;19904;-66
2022/06/01 04:02:47;;;;;;;;;;;;;;;;;;5112543;28;19907;-66
2022/06/01 04:05:12;;;;;;;;;;;;;;;;;;5111658;28;19911;-67
2022/06/01 04:07:38;;;;;;;;;;;5.70;99.90;;;;;;5112092;28;20357;-67
2022/06/01 04:10:04;;;;;;;;;;;5.70;99.90;;;;;;5112117;28;19903;-67
2022/06/01 04:12:29;;;;;;;;;;;5.70;99.90;;;;;;5112032;28;19929;-67
2022/06/01 04:14:55;;;;;;;;;;;5.80;99.90;;;;;;5112062;28;20002;-67
2022/06/01 04:17:20;;;;;;;;;;;5.90;99.90;;;;;;5109135;28;19907;-67
2022/06/01 04:19:46;;;;;;;;;;;6.00;99.90;;;;;;5108069;28;20609;-67
2022/06/01 04:22:13;;;;;;;;;;;6.00;99.90;;;;;;5111427;28;19923;-68
2022/06/01 04:24:38;;;;;;;;;;;6.20;99.90;;;;;;5111798;27;19916;-67
2022/06/01 04:27:04;;;;;;;;;;;6.20;99.90;;;;;;5111625;28;19910;-67
2022/06/01 04:29:30;;;;;;;;;;;6.30;99.90;;;;;;5111839;27;19904;-67
2022/06/01 04:32:00;;;;;;;;;;;6.30;99.90;;;;;;5109307;28;19911;-67
2022/06/01 04:34:26;;;;;;;;;;;6.30;99.90;;;;;;5108222;28;19911;-67
2022/06/01 04:36:54;;;;;;;;;;;6.30;99.90;;;;;;5109003;28;19911;-67
2022/06/01 04:39:21;;;;;;;;;;;6.30;99.90;;;;;;5111600;28;19957;-67
2022/06/01 04:41:46;;;;;;;;;;;6.30;99.90;;;;;;5111910;28;20355;-67
2022/06/01 04:44:12;;;;;;;;;;;6.30;99.90;;;;;;5111476;28;19918;-67
2022/06/01 04:46:37;;;;;;;;;;;6.30;99.90;;;;;;5111442;28;19915;-66
2022/06/01 04:49:03;;;;;;;;;;;6.40;99.90;;;;;;5111222;28;19912;-66
2022/06/01 04:51:29;;;;;;;;;;;6.50;99.90;;;;;;5111424;28;19968;-66
2022/06/01 04:53:54;;;;;;;;;;;6.50;99.90;;;;;;5111497;28;19903;-66
2022/06/01 04:56:20;;;;;;;;;;;6.60;99.90;;;;;;5111515;28;19949;-66
2022/06/01 04:58:45;;;;;;;;;;;6.80;99.90;;;;;;5111250;28;19903;-66
2022/06/01 05:01:11;;;;;;;;;;;6.90;99.90;;;;;;5109483;28;19904;-66
2022/06/01 05:03:36;;;;;;;;;;;7.00;99.90;;;;;;5107625;28;19969;-67
2022/06/01 05:06:02;;;;;;;;;;;7.20;99.90;;;;;;5107748;28;19911;-66
2022/06/01 05:08:27;;;;;;;;;;;7.30;99.90;;;;;;5110780;28;19908;-66
2022/06/01 05:10:53;;;;;;;;;;;7.40;99.90;;;;;;5110975;28;19910;-66
2022/06/01 05:13:19;;;;;;;;;;;7.50;99.90;;;;;;5111033;28;19904;-66
2022/06/01 05:15:50;;;;;;;;;;;7.50;99.90;;;;;;5110650;28;19961;-67
2022/06/01 05:18:15;;;;;;;;;;;7.50;99.90;;;;;;5110375;28;19908;-67
2022/06/01 05:20:41;;;;;;;;;;;7.50;99.90;;;;;;5110540;28;19904;-66
2022/06/01 05:23:07;;;;;;;;;;;7.50;99.90;;;;;;5110882;28;19913;-66
2022/06/01 05:25:33;;;;;;;;;;;7.50;99.90;;;;;;5110861;28;19916;-66
2022/06/01 05:27:59;;;;;;;;;;;7.50;99.90;;;;;;5110801;28;19903;-66
2022/06/01 05:30:24;;;;;;;;;;;7.50;99.90;;;;;;5110785;28;19911;-66
2022/06/01 05:32:49;;;;;;;;;;;7.50;99.90;;;;;;5110761;28;19947;-66
2022/06/01 05:35:15;;;;;;;;;;;7.50;99.90;;;;;;5110440;28;20244;-66
2022/06/01 05:37:40;;;;;;;;;;;7.60;99.90;;;;;;5111066;28;19907;-67
2022/06/01 05:40:06;;;;;;;;;;;7.70;99.90;;;;;;5110863;28;19960;-67
2022/06/01 05:42:32;;;;;;;;;;;7.90;99.90;;;;;;5110657;28;19919;-67
2022/06/01 05:44:57;;;;;;;;;;;8.10;99.90;;;;;;5110514;28;19918;-66
2022/06/01 05:47:23;;;;;;;;;;;8.30;99.90;;;;;;5108561;28;19908;-67
2022/06/01 05:49:48;;;;;;;;;;;8.50;99.90;;;;;;5107104;28;20027;-67
2022/06/01 05:52:18;;;;;;;;;;;8.70;99.90;;;;;;5109071;28;20364;-67
2022/06/01 05:54:44;;;;;;;;;;;9.00;99.90;;;;;;5111189;28;19914;-66
2022/06/01 05:57:10;;;;;;;;;;;9.20;99.90;;;;;;5110832;28;19976;-66
2022/06/01 05:59:35;;;;;;;;;;;9.40;99.90;;;;;;5110546;28;20397;-68
2022/06/01 06:02:01;;;;;;;;;;;9.60;99.90;;;;;;5110451;28;19951;-67
2022/06/01 06:04:26;;;;;;;;;;;9.70;99.90;;;;;;5109630;28;20005;-67
2022/06/01 06:06:52;;;;;;;;;;;9.90;99.90;;;;;;5107173;28;20275;-66
2022/06/01 06:09:18;;;;;;;;;;;10.10;99.90;;;;;;5107733;28;19951;-66
2022/06/01 06:11:43;;;;;;;;;;;10.20;99.90;;;;;;5110789;28;19951;-68
2022/06/01 06:14:09;;;;;;;;;;;10.40;99.90;;;;;;5113861;28;19907;-66
2022/06/01 06:16:36;;;;;;;;;;;10.50;99.90;;;;;;5114277;28;19985;-66
2022/06/01 06:19:03;;;;;;;;;;;10.70;99.90;;;;;;5114106;28;20007;-66
2022/06/01 06:21:29;;;;;;;;;;;10.90;99.90;;;;;;5114227;28;19915;-66
2022/06/01 06:24:04;;;;;;;;;;;11.10;99.90;;;;;;5111838;28;19926;-65
2022/06/01 06:26:30;;;;;;;;;;;11.30;99.90;;;;;;5110842;28;19974;-66
2022/06/01 06:28:56;;;;;;;;;;;11.50;99.90;;;;;;5111019;28;20360;-65
2022/06/01 06:31:21;;;;;;;;;;;11.70;99.90;;;;;;5112780;28;19914;-65
2022/06/01 06:33:48;;;;;;;;;;;11.90;99.90;;;;;;5111044;28;19914;-66
2022/06/01 06:36:14;;;;;;;;;;;12.00;99.90;;;;;;5111090;28;19915;-66
2022/06/01 06:38:39;;;;;;;;;;;12.30;99.90;;;;;;5113816;28;19910;-66
2022/06/01 06:41:06;;;;;;;;;;;12.50;99.90;;;;;;5112478;27;19908;-66
2022/06/01 06:43:33;;;;;;;;;;;12.60;99.90;;;;;;5110283;28;19914;-66
2022/06/01 06:46:03;;;;;;;;;;;12.80;99.90;;;;;;5110803;27;19938;-66
2022/06/01 06:48:29;;;;;;;;;;;13.00;99.90;;;;;;5113781;27;19908;-66
2022/06/01 06:50:55;;;;;;;;;;;13.20;99.90;;;;;;5113406;28;19903;-67
2022/06/01 06:53:21;;;;;;;;;;;13.30;99.90;;;;;;5113665;28;19911;-66
2022/06/01 06:55:47;;;;;;;;;;;13.50;99.90;;;;;;5113584;28;19904;-66
2022/06/01 06:58:12;;;;;;;;;;;13.70;99.90;;;;;;5111281;28;19952;-66
2022/06/01 07:00:38;;;;;;;;;;;13.80;99.90;;;;;;5113511;28;19904;-66
2022/06/01 07:03:04;;;;;;;;;;;13.90;99.90;;;;;;5110111;28;19908;-66
2022/06/01 07:08:14;;;;;;;;;;;14.30;99.90;;;;;;5112539;28;19911;-66
2022/06/01 07:10:40;;;;;;;;;;;14.40;99.90;;;;;;5113243;28;19903;-67
2022/06/01 07:13:05;;;;;;;;;;;14.50;99.90;;;;;;5113014;28;19908;-67
2022/06/01 07:15:31;;;;;;;;;;;14.70;99.90;;;;;;5113076;28;20283;-67
2022/06/01 07:17:57;;;;;;;;;;;14.90;99.90;;;;;;5112991;28;19904;-67
2022/06/01 07:20:22;;;;;;;;;;;15.00;99.90;;;;;;5112555;28;19910;-67
2022/06/01 07:22:48;;;;;;;;;;;15.20;99.90;;;;;;5111986;28;19907;-67
2022/06/01 07:25:13;;;;;;;;;;;15.30;99.90;;;;;;5112206;28;19918;-62
2022/06/01 07:27:39;;;;;;;;;;;15.20;99.90;;;;;;5094582;28;20073;-67
2022/06/01 07:30:05;;;;;;;;;;;15.30;99.90;;;;;;5112963;28;19911;-66
2022/06/01 07:32:31;;;;;;;;;;;15.40;99.90;;;;;;5112724;28;19930;-66
2022/06/01 07:34:56;;;;;;;;;;;15.30;99.90;;;;;;5112321;28;20350;-66
2022/06/01 07:43:06;;;;;;;;;;;16.10;99.90;;;;;;5109125;28;19910;-69
2022/06/01 07:45:35;;;;;;;;;;;16.20;99.90;;;;;;5109611;28;19920;-70
2022/06/01 07:48:01;;;;;;;;;;;16.70;99.90;;;;;;5091129;28;20275;-69
2022/06/01 07:50:27;;;;;;;;;;;17.50;99.90;;;;;;5111477;28;19998;-69
2022/06/01 07:52:52;;;;;;;;;;;18.40;99.90;;;;;;5109651;28;19987;-69
2022/06/01 07:55:18;;;;;;;;;;;19.10;99.20;;;;;;5109937;28;19907;-69
2022/06/01 07:57:43;;;;;;;;;;;20.00;96.70;;;;;;5112235;28;20069;-69
2022/06/01 08:00:09;;;;;;;;;;;19.80;95.20;;;;;;5112485;28;19908;-70
2022/06/01 08:02:34;;;;;;;;;;;20.70;94.50;;;;;;5112530;28;19911;-70
2022/06/01 08:05:00;;;;;;;;;;;21.00;92.00;;;;;;5111954;28;19923;-67
2022/06/01 08:07:25;;;;;;;;;;;21.30;92.50;;;;;;5112305;28;19908;-70
2022/06/01 08:09:51;;;;;;;;;;;21.60;91.10;;;;;;5112232;28;19943;-70
2022/06/01 08:15:00;;;;;;;;;;;22.30;88.00;;;;;;5112472;28;19933;-71
2022/06/01 08:17:26;;;;;;;;;;;22.10;83.30;;;;;;5112186;28;19907;-70
2022/06/01 08:19:51;;;;;;;;;;;22.40;84.70;;;;;;5111775;28;19908;-72
2022/06/01 08:22:17;;;;;;;;;;;22.20;79.20;;;;;;5112112;28;19907;-69
2022/06/01 08:24:43;;;;;;;;;;;21.80;81.20;;;;;;5108820;28;19916;-68
2022/06/01 08:27:08;;;;;;;;;;;22.60;84.70;;;;;;5109058;28;19908;-68
2022/06/01 08:29:35;;;;;;;;;;;23.20;79.60;;;;;;5109525;28;20330;-68
2022/06/01 08:32:00;;;;;;;;;;;23.40;74.80;;;;;;5091522;28;19912;-68
2022/06/01 08:34:26;;;;;;;;;;;23.10;76.70;;;;;;5091308;28;19940;-70
2022/06/01 08:36:51;;;;;;;;;;;24.00;73.20;;;;;;5089053;28;19904;-69
2022/06/01 08:39:17;;;;;;;;;;;23.90;73.00;;;;;;5087987;28;20380;-68
2022/06/01 08:41:42;;;;;;;;;;;24.50;69.20;;;;;;5089331;28;19908;-69
2022/06/01 08:44:34;;;;;;;;;;;25.30;71.40;;;;;;5091296;28;19942;-69
2022/06/01 08:47:08;;;;;;;;;;;26.20;67.80;;;;;;5099371;28;19908;-69
2022/06/01 08:49:34;;;;;;;;;;;26.90;61.30;;;;;;5098890;28;19912;-66
2022/06/01 08:52:00;;;;;;;;;;;26.40;59.10;;;;;;5109998;27;19904;-68
2022/06/01 08:54:26;;;;;;;;;;;25.30;54.60;;;;;;5111663;28;19915;-68
2022/06/01 08:57:03;;;;;;;;;;;23.90;61.20;;;;;;5111414;28;19915;-63
2022/06/01 08:59:38;;;;;;;;;;;23.20;60.30;;;;;;5108471;28;19904;-69
2022/06/01 09:02:22;;;;;;;;;;;22.80;65.50;;;;;;5088838;28;19908;-69
2022/06/01 09:04:54;;;;;;;;;;;23.20;64.00;;;;;;5087453;28;19922;-70
2022/06/01 09:07:25;;;;;;;;;;;23.90;62.50;;;;;;5090180;28;20360;-69
2022/06/01 09:10:09;;;;;;;;;;;22.30;58.90;;;;;;5090955;28;19904;-69
2022/06/01 09:12:36;;;;;;;;;;;21.70;66.80;;;;;;5091053;28;19911;-69
2022/06/01 09:15:24;;;;;;;;;;;21.60;69.20;;;;;;5091235;28;19904;-69
2022/06/01 09:17:50;;;;;;;;;;;21.20;70.50;;;;;;5084692;28;19914;-68
2022/06/01 09:23:06;;;;;;;;;;;20.50;70.40;;;;;;5089841;28;20037;-70
2022/06/01 09:25:35;;;;;;;;;;;19.90;68.70;;;;;;5087340;28;19947;-69
2022/06/01 09:28:05;;;;;;;;;;;19.60;72.60;;;;;;5086519;28;19911;-68
2022/06/01 09:30:33;;;;;;;;;;;19.20;73.10;;;;;;5100437;28;19965;-69
2022/06/01 09:33:05;;;;;;;;;;;18.60;77.60;;;;;;5111046;28;19916;-69
2022/06/01 09:35:38;;;;;;;;;;;18.60;80.70;;;;;;5110663;28;20580;-68
2022/06/01 09:38:10;;;;;;;;;;;18.40;80.90;;;;;;5110981;28;20467;-68
2022/06/01 09:40:36;;;;;;;;;;;18.30;79.50;;;;;;5110970;28;19914;-69
2022/06/01 09:43:03;;;;;;;;;;;18.30;79.40;;;;;;5092753;28;19903;-69
2022/06/01 09:45:30;;;;;;;;;;;20.70;74.20;;;;;;5110735;28;20372;-69
2022/06/01 09:48:21;;;;;;;;;;;22.60;66.20;;;;;;5113582;28;20389;-69
2022/06/01 09:50:57;;;;;;;;;;;23.00;67.10;;;;;;5114652;28;20010;-69
2022/06/01 09:53:22;;;;;;;;;;;23.20;64.80;;;;;;5115096;28;19914;-69
2022/06/01 09:55:53;;;;;;;;;;;21.10;59.90;;;;;;5115278;27;19994;-69
2022/06/01 10:06:52;;;;;;;;;;;20.50;69.80;;;;;;5114747;28;19919;-69
2022/06/01 10:09:23;;;;;;;;;;;20.20;68.70;;;;;;5114827;28;19960;-69
2022/06/01 10:11:51;;;;;;;;;;;20.40;69.80;;;;;;5114759;28;19904;-69
2022/06/01 10:14:32;;;;;;;;;;;19.80;72.20;;;;;;5115008;28;19908;-69
2022/06/01 10:17:16;;;;;;;;;;;19.70;76.20;;;;;;5114659;28;20427;-69
2022/06/01 10:19:44;;;;;;;;;;;19.40;81.30;;;;;;5114347;28;19904;-69
2022/06/01 10:22:30;;;;;;;;;;;19.30;81.80;;;;;;5114513;28;19965;-69
2022/06/01 10:24:57;;;;;;;;;;;20.00;82.10;;;;;;5111899;28;19961;-70
2022/06/01 10:27:31;;;;;;;;;;;20.50;81.50;;;;;;5111449;28;19949;-70
2022/06/01 10:30:17;;;;;;;;;;;20.50;76.90;;;;;;5114437;28;19907;-68
2022/06/01 10:33:03;;;;;;;;;;;20.20;79.70;;;;;;5114016;28;20368;-70
2022/06/01 10:35:42;;;;;;;;;;;19.70;79.30;;;;;;5102507;28;20010;-70
2022/06/01 10:38:19;;;;;;;;;;;21.80;75.40;;;;;;5114336;28;20284;-69
2022/06/01 10:41:00;;;;;;;;;;;21.40;79.30;;;;;;5114151;28;20368;-70
2022/06/01 10:43:34;;;;;;;;;;;21.10;76.00;;;;;;5114048;28;19919;-70
2022/06/01 10:46:20;;;;;;;;;;;20.30;78.40;;;;;;5114242;28;19912;-68
2022/06/01 10:48:55;;;;;;;;;;;19.40;83.00;;;;;;5111810;28;19926;-70
2022/06/01 10:51:28;;;;;;;;;;;18.90;87.00;;;;;;5110494;28;19911;-69
2022/06/01 10:54:03;;;;;;;;;;;18.60;88.50;;;;;;5112426;28;19915;-69
2022/06/01 10:56:28;;;;;;;;;;;18.50;90.60;;;;;;5112788;28;19954;-70
2022/06/01 10:58:55;;;;;;;;;;;18.50;91.30;;;;;;5113296;28;20391;-69
2022/06/01 11:01:40;;;;;;;;;;;18.30;92.70;;;;;;5114169;28;19919;-69
2022/06/01 11:04:25;;;;;;;;;;;20.50;90.20;;;;;;5113932;28;19904;-71
2022/06/01 11:06:53;;;;;;;;;;;23.40;76.40;;;;;;5113491;28;19933;-70
2022/06/01 11:09:25;;;;;;;;;;;25.40;67.70;;;;;;5114004;28;19904;-70
2022/06/01 11:11:56;;;;;;;;;;;28.50;54.90;;;;;;5113876;28;19973;-70
2022/06/01 11:14:40;;;;;;;;;;;31.00;43.40;;;;;;5113494;28;20478;-70
2022/06/01 11:17:15;;;;;;;;;;;31.20;38.00;;;;;;5113742;28;19911;-70
2022/06/01 11:19:44;;;;;;;;;;;29.80;35.30;;;;;;5113169;28;19908;-70
2022/06/01 11:22:10;;;;;;;;;;;27.50;39.50;;;;;;5113032;28;19904;-70
2022/06/01 11:24:45;;;;;;;;;;;25.50;41.50;;;;;;5110494;28;19957;-69
2022/06/01 11:27:11;;;;;;;;;;;23.20;44.90;;;;;;5110316;28;19954;-71
2022/06/01 11:29:40;;;;;;;;;;;22.30;55.70;;;;;;5092060;28;19963;-70
2022/06/01 11:32:10;;;;;;;;;;;22.20;55.50;;;;;;5089653;28;19954;-70
2022/06/01 11:34:45;;;;;;;;;;;24.40;55.20;;;;;;5090324;28;19919;-69
2022/06/01 11:37:13;;;;;;;;;;;26.10;48.40;;;;;;5092307;28;19947;-68
2022/06/01 11:39:39;;;;;;;;;;;24.60;48.60;;;;;;5098576;28;19998;-69
2022/06/01 11:42:07;;;;;;;;;;;23.40;49.70;;;;;;5107300;28;20049;-71
2022/06/01 11:44:37;;;;;;;;;;;22.10;53.70;;;;;;5110865;28;20013;-68
2022/06/01 11:47:29;;;;;;;;;;;21.10;59.30;;;;;;5112721;28;20383;-69
2022/06/01 11:50:16;;;;;;;;;;;21.10;63.10;;;;;;5110208;28;19908;-70
2022/06/01 11:52:57;;;;;;;;;;;24.60;57.10;;;;;;5112684;28;19910;-68
2022/06/01 11:55:31;;;;;;;;;;;28.20;48.60;;;;;;5112758;28;19903;-69
2022/06/01 11:58:05;;;;;;;;;;;27.10;44.00;;;;;;5112582;28;19908;-69
2022/06/01 12:00:47;;;;;;;;;;;26.50;40.10;;;;;;5112553;28;19910;-67
2022/06/01 12:03:19;;;;;;;;;;;25.60;42.60;;;;;;5110431;28;19908;-66
2022/06/01 12:06:02;;;;;;;;;;;26.80;43.30;;;;;;5107451;28;19965;-66
2022/06/01 12:08:32;;;;;;;;;;;28.80;40.70;;;;;;5109350;28;19953;-66
2022/06/01 12:10:59;;;;;;;;;;;30.00;35.00;;;;;;5106699;28;19954;-67
2022/06/01 12:13:32;;;;;;;;;;;30.70;34.80;;;;;;5109304;28;19904;-67
2022/06/01 12:16:17;;;;;;;;;;;31.00;30.70;;;;;;5109180;28;19950;-67
2022/06/01 12:18:53;;;;;;;;;;;30.40;30.20;;;;;;5108881;27;20398;-67
2022/06/01 12:21:38;;;;;;;;;;;30.60;30.70;;;;;;5108869;28;20296;-66
2022/06/01 12:29:53;;;;;;;;;;;32.00;28.00;;;;;;5109246;28;20319;-67
2022/06/01 12:32:19;;;;;;;;;;;31.10;26.60;;;;;;5109037;28;20368;-67
2022/06/01 12:34:48;;;;;;;;;;;31.80;26.60;;;;;;5108991;28;20023;-68
2022/06/01 12:37:20;;;;;;;;;;;31.80;25.20;;;;;;5108801;28;19930;-67
2022/06/01 12:39:52;;;;;;;;;;;31.50;26.20;;;;;;5108837;28;19904;-67
2022/06/01 12:42:19;;;;;;;;;;;31.80;26.60;;;;;;5108667;28;19912;-67
2022/06/01 12:44:47;;;;;;;;;;;30.80;26.40;;;;;;5108804;28;19907;-67
2022/06/01 12:47:31;;;;;;;;;;;30.20;27.10;;;;;;5108669;28;20202;-67
2022/06/01 12:50:04;;;;;;;;;;;28.00;28.80;;;;;;5109611;28;19911;-68
2022/06/01 12:52:31;;;;;;;;;;;25.60;32.00;;;;;;5111724;28;19948;-67
2022/06/01 12:54:59;;;;;;;;;;;24.80;35.30;;;;;;5111903;28;19960;-67
2022/06/01 12:57:28;;;;;;;;;;;23.70;41.00;;;;;;5111628;28;20389;-69
2022/06/01 12:59:55;;;;;;;;;;;22.60;43.10;;;;;;5111430;28;19911;-66
2022/06/01 13:02:20;;;;;;;;;;;21.70;47.60;;;;;;5111620;28;19908;-66
2022/06/01 13:04:50;;;;;;;;;;;21.70;50.40;;;;;;5108629;28;19907;-67
2022/06/01 13:07:17;;;;;;;;;;;21.30;55.70;;;;;;5108452;28;19922;-65
2022/06/01 13:09:42;;;;;;;;;;;21.20;56.60;;;;;;5108221;28;19933;-70
2022/06/01 13:12:15;;;;;;;;;;;20.90;61.70;;;;;;5111422;28;19911;-69
2022/06/01 13:14:40;;;;;;;;;;;20.80;63.60;;;;;;5108190;28;20288;-68
2022/06/01 13:17:14;;;;;;;;;;;20.20;67.50;;;;;;5109704;28;19903;-69
2022/06/01 13:19:40;;;;;;;;;;;19.90;83.20;;;;;;5109637;28;20385;-67
2022/06/01 13:22:11;;;;;;;;;;;19.40;90.00;;;;;;5109272;28;19914;-70
2022/06/01 13:24:44;;;;;;;;;;;19.30;99.20;;;;;;5109768;28;19908;-68
2022/06/01 13:27:10;;;;;;;;;;;18.90;94.90;;;;;;5110104;28;19911;-68
2022/06/01 13:29:46;;;;;;;;;;;18.50;98.50;;;;;;5108511;28;19908;-69
2022/06/01 13:32:12;;;;;;;;;;;18.00;99.90;;;;;;5109896;28;19904;-70
2022/06/01 13:34:41;;;;;;;;;;;17.70;99.90;;;;;;5108241;28;19923;-67
2022/06/01 13:37:14;;;;;;;;;;;17.40;99.90;;;;;;5107869;28;19911;-66
2022/06/01 13:39:55;;;;;;;;;;;17.10;99.90;;;;;;5108141;28;19904;-65
2022/06/01 13:42:25;;;;;;;;;;;16.80;99.90;;;;;;5089863;28;20693;-65
2022/06/01 13:45:02;;;;;;;;;;;16.60;99.90;;;;;;5108113;28;20421;-66
2022/06/01 13:47:34;;;;;;;;;;;16.40;99.90;;;;;;5108225;28;19908;-66
2022/06/01 13:50:02;;;;;;;;;;;16.20;99.90;;;;;;5107613;28;19908;-65
2022/06/01 13:52:28;;;;;;;;;;;16.00;99.90;;;;;;5107822;28;19911;-65
2022/06/01 13:55:14;;;;;;;;;;;15.70;99.90;;;;;;5107816;28;19916;-67
2022/06/01 13:57:55;;;;;;;;;;;15.70;99.90;;;;;;5107767;28;19969;-65
2022/06/01 14:00:31;;;;;;;;;;;15.60;99.90;;;;;;5107476;28;20272;-65
2022/06/01 14:03:12;;;;;;;;;;;15.70;99.90;;;;;;5107771;28;20372;-64
2022/06/01 14:05:40;;;;;;;;;;;15.90;99.90;;;;;;5107328;28;19932;-66
2022/06/01 14:08:06;;;;;;;;;;;16.20;99.90;;;;;;5107800;28;19907;-66
2022/06/01 14:10:33;;;;;;;;;;;16.90;99.90;;;;;;5107997;28;20249;-66
2022/06/01 14:12:58;;;;;;;;;;;17.50;99.90;;;;;;5107716;28;20364;-68
2022/06/01 14:15:24;;;;;;;;;;;18.10;99.90;;;;;;5107643;28;19923;-66
2022/06/01 14:17:49;;;;;;;;;;;18.40;99.90;;;;;;5107307;28;20045;-67
2022/06/01 14:20:15;;;;;;;;;;;19.20;99.90;;;;;;5128564;27;19908;-66
2022/06/01 14:22:40;;;;;;;;;;;19.50;99.90;;;;;;5104203;28;19975;-66
2022/06/01 14:30:35;;;;;;;;;;;20.90;99.90;;;;;;5107302;28;19914;-67
2022/06/01 14:33:00;;;;;;;;;;;21.70;99.90;;;;;;5106616;28;19904;-69
2022/06/01 14:35:28;;;;;;;;;;;21.90;99.90;;;;;;5108132;27;19916;-69
2022/06/01 14:37:54;;;;;;;;;;;22.40;99.90;;;;;;5099715;27;19990;-68
2022/06/01 14:40:20;;;;;;;;;;;22.30;99.90;;;;;;5109521;28;19904;-71
2022/06/01 14:42:45;;;;;;;;;;;22.40;99.90;;;;;;5111138;28;19908;-69
2022/06/01 14:45:11;;;;;;;;;;;21.90;99.40;;;;;;5110864;28;20071;-73
2022/06/01 14:47:36;;;;;;;;;;;22.10;99.90;;;;;;5099324;27;20376;-70
2022/06/01 14:50:02;;;;;;;;;;;21.90;99.90;;;;;;5103448;28;19908;-68
2022/06/01 14:52:28;;;;;;;;;;;21.70;99.90;;;;;;5110512;28;19914;-69
2022/06/01 14:54:54;;;;;;;;;;;21.10;99.90;;;;;;5110722;28;19916;-68
2022/06/01 14:57:20;;;;;;;;;;;20.40;99.90;;;;;;5110440;28;19908;-66
2022/06/01 14:59:45;;;;;;;;;;;20.10;99.90;;;;;;5110575;28;19915;-66
2022/06/01 15:02:15;;;;;;;;;;;20.30;99.90;;;;;;5109223;28;19911;-71
2022/06/01 15:04:41;;;;;;;;;;;20.10;99.90;;;;;;5110484;28;19903;-68
2022/06/01 15:07:07;;;;;;;;;;;19.90;99.90;;;;;;5110188;28;19907;-68
2022/06/01 15:09:35;;;;;;;;;;;19.70;99.90;;;;;;5110732;28;19915;-69
2022/06/01 15:12:02;;;;;;;;;;;19.20;99.90;;;;;;5110304;28;19908;-70
2022/06/01 15:14:28;;;;;;;;;;;19.00;99.90;;;;;;5110393;28;19919;-69